sensor_id;sensor_type;location;lat;lon;timestamp;P1;durP1;ratioP1;P2;durP2;ratioP2
30378;SDS011;17168;49.164;9.060;2023-08-20T00:01:44;11.32;;;9.65;;
30378;SDS011;17168;49.164;9.060;2023-08-20T00:04:17;10.93;;;9.05;;
30378;SDS011;17168;49.164;9.060;2023-08-20T00:06:50;12.43;;;10.10;;
30378;SDS011;17168;49.164;9.060;2023-08-20T00:09:22;12.85;;;9.07;;
30378;SDS011;17168;49.164;9.060;2023-08-20T00:11:58;11.52;;;9.73;;
30378;SDS011;17168;49.164;9.060;2023-08-20T00:17:27;11.57;;;10.20;;
30378;SDS011;17168;49.164;9.060;2023-08-20T00:19:59;12.00;;;10.70;;
30378;SDS011;17168;49.164;9.060;2023-08-20T00:22:32;12.38;;;11.15;;
30378;SDS011;17168;49.164;9.060;2023-08-20T00:25:05;11.73;;;10.35;;
30378;SDS011;17168;49.164;9.060;2023-08-20T00:27:39;12.52;;;9.93;;
30378;SDS011;17168;49.164;9.060;2023-08-20T00:30:14;12.10;;;10.00;;
30378;SDS011;17168;49.164;9.060;2023-08-20T00:32:46;11.40;;;9.00;;
30378;SDS011;17168;49.164;9.060;2023-08-20T00:35:18;11.63;;;10.43;;
30378;SDS011;17168;49.164;9.060;2023-08-20T00:37:50;11.38;;;10.02;;
30378;SDS011;17168;49.164;9.060;2023-08-20T00:40:23;10.27;;;9.15;;
30378;SDS011;17168;49.164;9.060;2023-08-20T00:42:55;9.32;;;8.02;;
30378;SDS011;17168;49.164;9.060;2023-08-20T00:45:30;13.55;;;9.82;;
30378;SDS011;17168;49.164;9.060;2023-08-20T00:48:04;11.00;;;9.57;;
30378;SDS011;17168;49.164;9.060;2023-08-20T00:50:37;10.90;;;9.90;;
30378;SDS011;17168;49.164;9.060;2023-08-20T00:53:11;11.38;;;10.23;;
30378;SDS011;17168;49.164;9.060;2023-08-20T00:55:45;11.07;;;9.98;;
30378;SDS011;17168;49.164;9.060;2023-08-20T00:58:17;10.57;;;9.45;;
30378;SDS011;17168;49.164;9.060;2023-08-20T01:00:53;11.18;;;9.07;;
30378;SDS011;17168;49.164;9.060;2023-08-20T01:03:25;9.52;;;8.38;;
30378;SDS011;17168;49.164;9.060;2023-08-20T01:05:59;11.93;;;9.38;;
30378;SDS011;17168;49.164;9.060;2023-08-20T01:08:40;10.80;;;9.70;;
30378;SDS011;17168;49.164;9.060;2023-08-20T01:11:16;12.32;;;9.60;;
30378;SDS011;17168;49.164;9.060;2023-08-20T01:13:54;10.57;;;9.23;;
30378;SDS011;17168;49.164;9.060;2023-08-20T01:16:28;9.63;;;8.65;;
30378;SDS011;17168;49.164;9.060;2023-08-20T01:19:01;10.25;;;9.15;;
30378;SDS011;17168;49.164;9.060;2023-08-20T01:21:36;11.52;;;10.02;;
30378;SDS011;17168;49.164;9.060;2023-08-20T01:24:15;9.88;;;8.90;;
30378;SDS011;17168;49.164;9.060;2023-08-20T01:27:05;12.07;;;9.18;;
30378;SDS011;17168;49.164;9.060;2023-08-20T01:29:49;9.63;;;8.63;;
30378;SDS011;17168;49.164;9.060;2023-08-20T01:32:22;10.27;;;8.63;;
30378;SDS011;17168;49.164;9.060;2023-08-20T01:34:55;11.70;;;9.75;;
30378;SDS011;17168;49.164;9.060;2023-08-20T01:37:28;11.00;;;9.38;;
30378;SDS011;17168;49.164;9.060;2023-08-20T01:40:00;9.40;;;7.88;;
30378;SDS011;17168;49.164;9.060;2023-08-20T01:42:33;10.13;;;9.10;;
30378;SDS011;17168;49.164;9.060;2023-08-20T01:45:08;10.68;;;9.13;;
30378;SDS011;17168;49.164;9.060;2023-08-20T01:47:42;12.93;;;8.52;;
30378;SDS011;17168;49.164;9.060;2023-08-20T01:50:15;10.32;;;9.23;;
30378;SDS011;17168;49.164;9.060;2023-08-20T01:52:47;12.20;;;11.00;;
30378;SDS011;17168;49.164;9.060;2023-08-20T01:55:20;12.23;;;9.80;;
30378;SDS011;17168;49.164;9.060;2023-08-20T01:57:52;10.35;;;9.45;;
30378;SDS011;17168;49.164;9.060;2023-08-20T02:00:27;11.45;;;10.35;;
30378;SDS011;17168;49.164;9.060;2023-08-20T02:03:00;13.07;;;10.35;;
30378;SDS011;17168;49.164;9.060;2023-08-20T02:05:32;11.07;;;10.05;;
30378;SDS011;17168;49.164;9.060;2023-08-20T02:08:05;11.10;;;9.75;;
30378;SDS011;17168;49.164;9.060;2023-08-20T02:10:37;13.13;;;10.70;;
30378;SDS011;17168;49.164;9.060;2023-08-20T02:13:09;13.85;;;10.13;;
30378;SDS011;17168;49.164;9.060;2023-08-20T02:15:44;11.35;;;10.25;;
30378;SDS011;17168;49.164;9.060;2023-08-20T02:18:16;11.40;;;10.30;;
30378;SDS011;17168;49.164;9.060;2023-08-20T02:20:49;11.50;;;10.13;;
30378;SDS011;17168;49.164;9.060;2023-08-20T02:23:21;11.95;;;10.63;;
30378;SDS011;17168;49.164;9.060;2023-08-20T02:25:53;11.65;;;9.57;;
30378;SDS011;17168;49.164;9.060;2023-08-20T02:28:26;12.48;;;10.57;;
30378;SDS011;17168;49.164;9.060;2023-08-20T02:31:03;11.18;;;10.07;;
30378;SDS011;17168;49.164;9.060;2023-08-20T02:33:36;9.55;;;8.57;;
30378;SDS011;17168;49.164;9.060;2023-08-20T02:36:08;9.93;;;8.93;;
30378;SDS011;17168;49.164;9.060;2023-08-20T02:38:40;8.57;;;7.85;;
30378;SDS011;17168;49.164;9.060;2023-08-20T02:41:13;10.27;;;9.15;;
30378;SDS011;17168;49.164;9.060;2023-08-20T02:43:45;13.65;;;11.23;;
30378;SDS011;17168;49.164;9.060;2023-08-20T02:46:20;12.00;;;10.02;;
30378;SDS011;17168;49.164;9.060;2023-08-20T02:48:52;11.65;;;10.48;;
30378;SDS011;17168;49.164;9.060;2023-08-20T02:51:25;11.50;;;10.02;;
30378;SDS011;17168;49.164;9.060;2023-08-20T02:53:57;12.82;;;9.15;;
30378;SDS011;17168;49.164;9.060;2023-08-20T02:56:29;13.82;;;10.90;;
30378;SDS011;17168;49.164;9.060;2023-08-20T02:59:01;13.07;;;11.40;;
30378;SDS011;17168;49.164;9.060;2023-08-20T03:01:36;12.10;;;10.93;;
30378;SDS011;17168;49.164;9.060;2023-08-20T03:04:09;13.13;;;11.77;;
30378;SDS011;17168;49.164;9.060;2023-08-20T03:06:42;12.63;;;11.25;;
30378;SDS011;17168;49.164;9.060;2023-08-20T03:09:15;12.10;;;10.68;;
30378;SDS011;17168;49.164;9.060;2023-08-20T03:11:47;12.23;;;10.52;;
30378;SDS011;17168;49.164;9.060;2023-08-20T03:14:20;13.02;;;10.07;;
30378;SDS011;17168;49.164;9.060;2023-08-20T03:16:54;10.93;;;8.98;;
30378;SDS011;17168;49.164;9.060;2023-08-20T03:19:29;11.00;;;9.93;;
30378;SDS011;17168;49.164;9.060;2023-08-20T03:22:06;13.82;;;10.15;;
30378;SDS011;17168;49.164;9.060;2023-08-20T03:24:38;12.23;;;9.25;;
30378;SDS011;17168;49.164;9.060;2023-08-20T03:27:10;11.10;;;10.00;;
30378;SDS011;17168;49.164;9.060;2023-08-20T03:29:42;12.07;;;10.68;;
30378;SDS011;17168;49.164;9.060;2023-08-20T03:32:18;14.13;;;10.77;;
30378;SDS011;17168;49.164;9.060;2023-08-20T03:34:50;12.20;;;10.57;;
30378;SDS011;17168;49.164;9.060;2023-08-20T03:37:22;10.90;;;9.82;;
30378;SDS011;17168;49.164;9.060;2023-08-20T03:39:54;11.68;;;10.02;;
30378;SDS011;17168;49.164;9.060;2023-08-20T03:42:27;12.88;;;11.52;;
30378;SDS011;17168;49.164;9.060;2023-08-20T03:44:59;12.82;;;11.43;;
30378;SDS011;17168;49.164;9.060;2023-08-20T03:47:34;12.68;;;11.27;;
30378;SDS011;17168;49.164;9.060;2023-08-20T03:50:09;13.23;;;11.82;;
30378;SDS011;17168;49.164;9.060;2023-08-20T03:52:41;13.02;;;11.02;;
30378;SDS011;17168;49.164;9.060;2023-08-20T03:55:14;12.38;;;9.55;;
30378;SDS011;17168;49.164;9.060;2023-08-20T03:57:46;10.98;;;9.73;;
30378;SDS011;17168;49.164;9.060;2023-08-20T04:00:18;11.02;;;9.80;;
30378;SDS011;17168;49.164;9.060;2023-08-20T04:02:53;13.02;;;10.32;;
30378;SDS011;17168;49.164;9.060;2023-08-20T04:05:26;11.00;;;8.90;;
30378;SDS011;17168;49.164;9.060;2023-08-20T04:07:58;10.88;;;9.40;;
30378;SDS011;17168;49.164;9.060;2023-08-20T04:10:30;11.30;;;9.25;;
30378;SDS011;17168;49.164;9.060;2023-08-20T04:13:03;11.80;;;9.75;;
30378;SDS011;17168;49.164;9.060;2023-08-20T04:15:35;12.38;;;10.23;;
30378;SDS011;17168;49.164;9.060;2023-08-20T04:18:10;12.68;;;10.93;;
30378;SDS011;17168;49.164;9.060;2023-08-20T04:20:42;12.32;;;10.40;;
30378;SDS011;17168;49.164;9.060;2023-08-20T04:23:14;11.30;;;10.18;;
30378;SDS011;17168;49.164;9.060;2023-08-20T04:25:47;11.02;;;9.25;;
30378;SDS011;17168;49.164;9.060;2023-08-20T04:28:19;12.73;;;10.43;;
30378;SDS011;17168;49.164;9.060;2023-08-20T04:30:51;12.52;;;11.23;;
30378;SDS011;17168;49.164;9.060;2023-08-20T04:33:28;13.50;;;12.13;;
30378;SDS011;17168;49.164;9.060;2023-08-20T04:36:00;12.50;;;10.35;;
30378;SDS011;17168;49.164;9.060;2023-08-20T04:38:33;11.60;;;10.43;;
30378;SDS011;17168;49.164;9.060;2023-08-20T04:41:05;14.15;;;11.90;;
30378;SDS011;17168;49.164;9.060;2023-08-20T04:43:37;14.02;;;11.45;;
30378;SDS011;17168;49.164;9.060;2023-08-20T04:46:09;11.85;;;10.15;;
30378;SDS011;17168;49.164;9.060;2023-08-20T04:48:44;12.93;;;11.23;;
30378;SDS011;17168;49.164;9.060;2023-08-20T04:51:17;12.02;;;10.23;;
30378;SDS011;17168;49.164;9.060;2023-08-20T04:53:49;12.60;;;11.02;;
30378;SDS011;17168;49.164;9.060;2023-08-20T04:56:21;12.68;;;9.90;;
30378;SDS011;17168;49.164;9.060;2023-08-20T04:58:53;13.95;;;10.68;;
30378;SDS011;17168;49.164;9.060;2023-08-20T05:01:26;11.70;;;10.48;;
30378;SDS011;17168;49.164;9.060;2023-08-20T05:04:04;11.90;;;10.63;;
30378;SDS011;17168;49.164;9.060;2023-08-20T05:06:37;12.00;;;10.80;;
30378;SDS011;17168;49.164;9.060;2023-08-20T05:09:10;12.93;;;10.13;;
30378;SDS011;17168;49.164;9.060;2023-08-20T05:11:42;11.93;;;10.15;;
30378;SDS011;17168;49.164;9.060;2023-08-20T05:14:14;11.63;;;10.43;;
30378;SDS011;17168;49.164;9.060;2023-08-20T05:16:46;12.57;;;10.48;;
30378;SDS011;17168;49.164;9.060;2023-08-20T05:19:21;11.40;;;9.75;;
30378;SDS011;17168;49.164;9.060;2023-08-20T05:21:54;14.48;;;11.50;;
30378;SDS011;17168;49.164;9.060;2023-08-20T05:24:28;13.45;;;10.93;;
30378;SDS011;17168;49.164;9.060;2023-08-20T05:27:04;14.57;;;11.93;;
30378;SDS011;17168;49.164;9.060;2023-08-20T05:29:37;13.40;;;11.18;;
30378;SDS011;17168;49.164;9.060;2023-08-20T05:32:10;13.98;;;11.82;;
30378;SDS011;17168;49.164;9.060;2023-08-20T05:34:45;12.82;;;11.20;;
30378;SDS011;17168;49.164;9.060;2023-08-20T05:37:17;14.38;;;12.85;;
30378;SDS011;17168;49.164;9.060;2023-08-20T05:39:49;16.35;;;13.80;;
30378;SDS011;17168;49.164;9.060;2023-08-20T05:42:22;17.77;;;13.32;;
30378;SDS011;17168;49.164;9.060;2023-08-20T05:44:54;15.20;;;13.57;;
30378;SDS011;17168;49.164;9.060;2023-08-20T05:47:26;14.57;;;13.07;;
30378;SDS011;17168;49.164;9.060;2023-08-20T05:50:01;14.57;;;13.07;;
30378;SDS011;17168;49.164;9.060;2023-08-20T05:52:34;13.95;;;12.55;;
30378;SDS011;17168;49.164;9.060;2023-08-20T05:55:07;13.60;;;11.38;;
30378;SDS011;17168;49.164;9.060;2023-08-20T05:57:39;14.57;;;13.18;;
30378;SDS011;17168;49.164;9.060;2023-08-20T06:00:14;15.50;;;13.13;;
30378;SDS011;17168;49.164;9.060;2023-08-20T06:02:47;15.27;;;13.27;;
30378;SDS011;17168;49.164;9.060;2023-08-20T06:05:22;15.57;;;13.68;;
30378;SDS011;17168;49.164;9.060;2023-08-20T06:07:54;14.52;;;12.88;;
30378;SDS011;17168;49.164;9.060;2023-08-20T06:10:26;14.48;;;12.98;;
30378;SDS011;17168;49.164;9.060;2023-08-20T06:12:59;15.43;;;13.20;;
30378;SDS011;17168;49.164;9.060;2023-08-20T06:15:31;15.63;;;13.68;;
30378;SDS011;17168;49.164;9.060;2023-08-20T06:18:04;17.33;;;13.35;;
30378;SDS011;17168;49.164;9.060;2023-08-20T06:20:39;17.42;;;13.10;;
30378;SDS011;17168;49.164;9.060;2023-08-20T06:23:12;13.50;;;12.05;;
30378;SDS011;17168;49.164;9.060;2023-08-20T06:26:02;14.20;;;12.80;;
30378;SDS011;17168;49.164;9.060;2023-08-20T06:28:34;14.45;;;12.88;;
30378;SDS011;17168;49.164;9.060;2023-08-20T06:31:06;20.98;;;16.02;;
30378;SDS011;17168;49.164;9.060;2023-08-20T06:33:38;19.80;;;14.82;;
30378;SDS011;17168;49.164;9.060;2023-08-20T06:36:13;18.95;;;16.58;;
30378;SDS011;17168;49.164;9.060;2023-08-20T06:38:47;13.95;;;12.55;;
30378;SDS011;17168;49.164;9.060;2023-08-20T06:41:19;12.45;;;10.57;;
30378;SDS011;17168;49.164;9.060;2023-08-20T06:43:52;19.90;;;15.13;;
30378;SDS011;17168;49.164;9.060;2023-08-20T06:46:24;15.10;;;13.50;;
30378;SDS011;17168;49.164;9.060;2023-08-20T06:48:57;19.25;;;15.40;;
30378;SDS011;17168;49.164;9.060;2023-08-20T06:51:31;19.73;;;15.85;;
30378;SDS011;17168;49.164;9.060;2023-08-20T06:54:04;16.83;;;14.75;;
30378;SDS011;17168;49.164;9.060;2023-08-20T06:56:37;14.35;;;12.85;;
30378;SDS011;17168;49.164;9.060;2023-08-20T06:59:10;15.50;;;13.52;;
30378;SDS011;17168;49.164;9.060;2023-08-20T07:01:42;16.13;;;13.50;;
30378;SDS011;17168;49.164;9.060;2023-08-20T07:04:15;15.80;;;13.55;;
30378;SDS011;17168;49.164;9.060;2023-08-20T07:06:50;16.35;;;13.90;;
30378;SDS011;17168;49.164;9.060;2023-08-20T07:09:22;17.73;;;15.77;;
30378;SDS011;17168;49.164;9.060;2023-08-20T07:11:54;18.08;;;16.17;;
30378;SDS011;17168;49.164;9.060;2023-08-20T07:14:26;17.67;;;15.48;;
30378;SDS011;17168;49.164;9.060;2023-08-20T07:16:59;18.92;;;16.45;;
30378;SDS011;17168;49.164;9.060;2023-08-20T07:19:34;19.33;;;15.10;;
30378;SDS011;17168;49.164;9.060;2023-08-20T07:22:10;15.85;;;13.32;;
30378;SDS011;17168;49.164;9.060;2023-08-20T07:24:42;17.10;;;14.43;;
30378;SDS011;17168;49.164;9.060;2023-08-20T07:27:15;16.45;;;14.10;;
30378;SDS011;17168;49.164;9.060;2023-08-20T07:29:47;16.35;;;14.63;;
30378;SDS011;17168;49.164;9.060;2023-08-20T07:32:19;22.45;;;15.07;;
30378;SDS011;17168;49.164;9.060;2023-08-20T07:34:52;16.83;;;14.95;;
30378;SDS011;17168;49.164;9.060;2023-08-20T07:37:26;15.73;;;13.90;;
30378;SDS011;17168;49.164;9.060;2023-08-20T07:39:59;15.98;;;14.32;;
30378;SDS011;17168;49.164;9.060;2023-08-20T07:42:31;16.02;;;14.38;;
30378;SDS011;17168;49.164;9.060;2023-08-20T07:45:04;16.23;;;14.57;;
30378;SDS011;17168;49.164;9.060;2023-08-20T07:47:36;16.60;;;14.73;;
30378;SDS011;17168;49.164;9.060;2023-08-20T07:50:09;18.20;;;13.75;;
30378;SDS011;17168;49.164;9.060;2023-08-20T07:52:44;16.63;;;14.93;;
30378;SDS011;17168;49.164;9.060;2023-08-20T07:55:16;17.98;;;13.82;;
30378;SDS011;17168;49.164;9.060;2023-08-20T07:57:50;13.38;;;12.00;;
30378;SDS011;17168;49.164;9.060;2023-08-20T08:00:24;13.85;;;12.27;;
30378;SDS011;17168;49.164;9.060;2023-08-20T08:02:56;13.68;;;11.63;;
30378;SDS011;17168;49.164;9.060;2023-08-20T08:05:29;15.88;;;13.13;;
30378;SDS011;17168;49.164;9.060;2023-08-20T08:08:04;13.43;;;12.02;;
30378;SDS011;17168;49.164;9.060;2023-08-20T08:10:36;13.45;;;11.00;;
30378;SDS011;17168;49.164;9.060;2023-08-20T08:13:09;16.67;;;11.35;;
30378;SDS011;17168;49.164;9.060;2023-08-20T08:15:42;13.25;;;11.38;;
30378;SDS011;17168;49.164;9.060;2023-08-20T08:18:14;13.23;;;11.93;;
30378;SDS011;17168;49.164;9.060;2023-08-20T08:20:47;13.45;;;11.80;;
30378;SDS011;17168;49.164;9.060;2023-08-20T08:23:21;13.05;;;11.77;;
30378;SDS011;17168;49.164;9.060;2023-08-20T08:25:54;13.07;;;10.95;;
30378;SDS011;17168;49.164;9.060;2023-08-20T08:28:26;13.50;;;11.02;;
30378;SDS011;17168;49.164;9.060;2023-08-20T08:30:58;11.95;;;10.75;;
30378;SDS011;17168;49.164;9.060;2023-08-20T08:33:31;12.50;;;11.20;;
30378;SDS011;17168;49.164;9.060;2023-08-20T08:36:03;12.65;;;11.35;;
30378;SDS011;17168;49.164;9.060;2023-08-20T08:38:38;13.20;;;11.45;;
30378;SDS011;17168;49.164;9.060;2023-08-20T08:41:11;11.82;;;10.63;;
30378;SDS011;17168;49.164;9.060;2023-08-20T08:43:44;11.80;;;10.60;;
30378;SDS011;17168;49.164;9.060;2023-08-20T08:46:18;9.75;;;8.23;;
30378;SDS011;17168;49.164;9.060;2023-08-20T08:48:51;10.93;;;9.82;;
30378;SDS011;17168;49.164;9.060;2023-08-20T08:51:24;11.00;;;9.88;;
30378;SDS011;17168;49.164;9.060;2023-08-20T08:54:01;13.45;;;11.48;;
30378;SDS011;17168;49.164;9.060;2023-08-20T08:56:34;11.73;;;10.52;;
30378;SDS011;17168;49.164;9.060;2023-08-20T08:59:06;10.98;;;9.73;;
30378;SDS011;17168;49.164;9.060;2023-08-20T09:01:38;9.23;;;7.32;;
30378;SDS011;17168;49.164;9.060;2023-08-20T09:04:12;12.05;;;8.80;;
30378;SDS011;17168;49.164;9.060;2023-08-20T09:06:45;11.93;;;10.50;;
30378;SDS011;17168;49.164;9.060;2023-08-20T09:09:21;11.25;;;9.90;;
30378;SDS011;17168;49.164;9.060;2023-08-20T09:11:53;10.57;;;9.05;;
30378;SDS011;17168;49.164;9.060;2023-08-20T09:14:28;12.07;;;10.98;;
30378;SDS011;17168;49.164;9.060;2023-08-20T09:17:01;15.45;;;10.95;;
30378;SDS011;17168;49.164;9.060;2023-08-20T09:19:35;13.05;;;10.55;;
30378;SDS011;17168;49.164;9.060;2023-08-20T09:22:11;11.82;;;9.80;;
30378;SDS011;17168;49.164;9.060;2023-08-20T09:24:47;11.45;;;9.85;;
30378;SDS011;17168;49.164;9.060;2023-08-20T09:27:24;11.13;;;9.43;;
30378;SDS011;17168;49.164;9.060;2023-08-20T09:29:57;10.90;;;9.77;;
30378;SDS011;17168;49.164;9.060;2023-08-20T09:32:29;10.50;;;9.40;;
30378;SDS011;17168;49.164;9.060;2023-08-20T09:35:02;8.85;;;7.97;;
30378;SDS011;17168;49.164;9.060;2023-08-20T09:37:34;8.95;;;8.15;;
30378;SDS011;17168;49.164;9.060;2023-08-20T09:40:11;10.82;;;8.45;;
30378;SDS011;17168;49.164;9.060;2023-08-20T09:42:43;10.52;;;8.52;;
30378;SDS011;17168;49.164;9.060;2023-08-20T09:45:16;8.60;;;6.97;;
30378;SDS011;17168;49.164;9.060;2023-08-20T09:47:51;9.07;;;8.02;;
30378;SDS011;17168;49.164;9.060;2023-08-20T09:50:27;9.35;;;7.68;;
30378;SDS011;17168;49.164;9.060;2023-08-20T09:53:01;9.10;;;6.38;;
30378;SDS011;17168;49.164;9.060;2023-08-20T09:55:41;9.18;;;8.15;;
30378;SDS011;17168;49.164;9.060;2023-08-20T09:58:15;8.25;;;7.45;;
30378;SDS011;17168;49.164;9.060;2023-08-20T10:00:48;8.45;;;7.65;;
30378;SDS011;17168;49.164;9.060;2023-08-20T10:03:21;8.75;;;7.43;;
30378;SDS011;17168;49.164;9.060;2023-08-20T10:05:54;8.38;;;7.57;;
30378;SDS011;17168;49.164;9.060;2023-08-20T10:08:29;8.45;;;7.75;;
30378;SDS011;17168;49.164;9.060;2023-08-20T10:11:05;8.85;;;8.05;;
30378;SDS011;17168;49.164;9.060;2023-08-20T10:13:37;9.18;;;8.20;;
30378;SDS011;17168;49.164;9.060;2023-08-20T10:16:11;9.38;;;8.45;;
30378;SDS011;17168;49.164;9.060;2023-08-20T10:18:47;10.40;;;8.30;;
30378;SDS011;17168;49.164;9.060;2023-08-20T10:21:22;8.40;;;7.53;;
30378;SDS011;17168;49.164;9.060;2023-08-20T10:23:55;9.75;;;8.85;;
30378;SDS011;17168;49.164;9.060;2023-08-20T10:26:30;12.40;;;8.50;;
30378;SDS011;17168;49.164;9.060;2023-08-20T10:32:10;8.60;;;7.43;;
30378;SDS011;17168;49.164;9.060;2023-08-20T10:34:49;9.85;;;7.15;;
30378;SDS011;17168;49.164;9.060;2023-08-20T10:37:26;7.90;;;7.10;;
30378;SDS011;17168;49.164;9.060;2023-08-20T10:40:00;7.47;;;6.40;;
30378;SDS011;17168;49.164;9.060;2023-08-20T10:42:35;7.30;;;6.68;;
30378;SDS011;17168;49.164;9.060;2023-08-20T10:45:13;9.52;;;6.72;;
30378;SDS011;17168;49.164;9.060;2023-08-20T10:47:47;6.10;;;5.28;;
30378;SDS011;17168;49.164;9.060;2023-08-20T10:50:20;7.95;;;7.25;;
30378;SDS011;17168;49.164;9.060;2023-08-20T10:52:54;9.30;;;6.45;;
30378;SDS011;17168;49.164;9.060;2023-08-20T10:55:27;7.03;;;6.43;;
30378;SDS011;17168;49.164;9.060;2023-08-20T10:58:03;7.53;;;6.75;;
30378;SDS011;17168;49.164;9.060;2023-08-20T11:00:36;6.90;;;6.30;;
30378;SDS011;17168;49.164;9.060;2023-08-20T11:03:09;8.73;;;7.05;;
30378;SDS011;17168;49.164;9.060;2023-08-20T11:05:42;6.85;;;6.22;;
30378;SDS011;17168;49.164;9.060;2023-08-20T11:08:15;7.75;;;6.75;;
30378;SDS011;17168;49.164;9.060;2023-08-20T11:10:47;7.13;;;6.53;;
30378;SDS011;17168;49.164;9.060;2023-08-20T11:13:22;7.63;;;6.65;;
30378;SDS011;17168;49.164;9.060;2023-08-20T11:15:57;6.15;;;4.93;;
30378;SDS011;17168;49.164;9.060;2023-08-20T11:18:30;7.00;;;6.28;;
30378;SDS011;17168;49.164;9.060;2023-08-20T11:21:04;7.00;;;6.32;;
30378;SDS011;17168;49.164;9.060;2023-08-20T11:23:37;7.93;;;5.00;;
30378;SDS011;17168;49.164;9.060;2023-08-20T11:26:13;7.47;;;6.55;;
30378;SDS011;17168;49.164;9.060;2023-08-20T11:28:48;7.38;;;6.72;;
30378;SDS011;17168;49.164;9.060;2023-08-20T11:31:20;6.65;;;6.05;;
30378;SDS011;17168;49.164;9.060;2023-08-20T11:33:53;6.78;;;5.97;;
30378;SDS011;17168;49.164;9.060;2023-08-20T11:36:28;7.22;;;6.53;;
30378;SDS011;17168;49.164;9.060;2023-08-20T11:39:00;7.18;;;6.20;;
30378;SDS011;17168;49.164;9.060;2023-08-20T11:41:35;5.90;;;5.38;;
30378;SDS011;17168;49.164;9.060;2023-08-20T11:44:18;7.38;;;6.18;;
30378;SDS011;17168;49.164;9.060;2023-08-20T11:46:52;6.97;;;6.32;;
30378;SDS011;17168;49.164;9.060;2023-08-20T11:49:27;5.88;;;5.32;;
30378;SDS011;17168;49.164;9.060;2023-08-20T11:52:02;7.63;;;6.07;;
30378;SDS011;17168;49.164;9.060;2023-08-20T11:54:35;6.45;;;5.95;;
30378;SDS011;17168;49.164;9.060;2023-08-20T11:57:08;6.63;;;5.93;;
30378;SDS011;17168;49.164;9.060;2023-08-20T11:59:43;7.38;;;6.72;;
30378;SDS011;17168;49.164;9.060;2023-08-20T12:02:15;7.28;;;6.63;;
30378;SDS011;17168;49.164;9.060;2023-08-20T12:05:10;7.78;;;7.18;;
30378;SDS011;17168;49.164;9.060;2023-08-20T12:07:42;7.40;;;6.80;;
30378;SDS011;17168;49.164;9.060;2023-08-20T12:10:26;8.25;;;7.45;;
30378;SDS011;17168;49.164;9.060;2023-08-20T12:13:00;7.90;;;6.93;;
30378;SDS011;17168;49.164;9.060;2023-08-20T12:15:37;7.18;;;6.50;;
30378;SDS011;17168;49.164;9.060;2023-08-20T12:18:09;6.65;;;5.95;;
30378;SDS011;17168;49.164;9.060;2023-08-20T12:20:41;7.60;;;7.00;;
30378;SDS011;17168;49.164;9.060;2023-08-20T12:23:14;7.30;;;6.60;;
30378;SDS011;17168;49.164;9.060;2023-08-20T12:25:49;6.15;;;5.60;;
30378;SDS011;17168;49.164;9.060;2023-08-20T12:28:22;8.10;;;6.65;;
30378;SDS011;17168;49.164;9.060;2023-08-20T12:30:59;7.25;;;6.75;;
30378;SDS011;17168;49.164;9.060;2023-08-20T12:33:31;7.68;;;6.95;;
30378;SDS011;17168;49.164;9.060;2023-08-20T12:36:04;7.03;;;6.43;;
30378;SDS011;17168;49.164;9.060;2023-08-20T12:38:36;5.53;;;4.72;;
30378;SDS011;17168;49.164;9.060;2023-08-20T12:41:09;6.90;;;6.28;;
30378;SDS011;17168;49.164;9.060;2023-08-20T12:43:41;7.15;;;6.45;;
30378;SDS011;17168;49.164;9.060;2023-08-20T12:46:16;7.13;;;6.53;;
30378;SDS011;17168;49.164;9.060;2023-08-20T12:48:48;8.07;;;7.47;;
30378;SDS011;17168;49.164;9.060;2023-08-20T12:51:20;8.98;;;7.05;;
30378;SDS011;17168;49.164;9.060;2023-08-20T12:53:53;7.30;;;6.60;;
30378;SDS011;17168;49.164;9.060;2023-08-20T12:56:25;8.85;;;7.97;;
30378;SDS011;17168;49.164;9.060;2023-08-20T12:58:58;7.07;;;6.40;;
30378;SDS011;17168;49.164;9.060;2023-08-20T13:01:33;7.53;;;6.93;;
30378;SDS011;17168;49.164;9.060;2023-08-20T13:04:06;8.68;;;7.78;;
30378;SDS011;17168;49.164;9.060;2023-08-20T13:06:39;7.32;;;6.60;;
30378;SDS011;17168;49.164;9.060;2023-08-20T13:09:12;7.38;;;6.78;;
30378;SDS011;17168;49.164;9.060;2023-08-20T13:11:47;8.43;;;7.72;;
30378;SDS011;17168;49.164;9.060;2023-08-20T13:14:20;8.50;;;7.68;;
30378;SDS011;17168;49.164;9.060;2023-08-20T13:16:55;8.02;;;7.32;;
30378;SDS011;17168;49.164;9.060;2023-08-20T13:19:28;8.80;;;7.18;;
30378;SDS011;17168;49.164;9.060;2023-08-20T13:22:00;8.13;;;7.53;;
30378;SDS011;17168;49.164;9.060;2023-08-20T13:24:35;7.70;;;7.10;;
30378;SDS011;17168;49.164;9.060;2023-08-20T13:27:08;7.35;;;6.68;;
30378;SDS011;17168;49.164;9.060;2023-08-20T13:29:40;8.57;;;7.18;;
30378;SDS011;17168;49.164;9.060;2023-08-20T13:32:15;7.63;;;6.93;;
30378;SDS011;17168;49.164;9.060;2023-08-20T13:34:49;8.05;;;7.25;;
30378;SDS011;17168;49.164;9.060;2023-08-20T13:37:21;7.05;;;6.45;;
30378;SDS011;17168;49.164;9.060;2023-08-20T13:39:53;8.65;;;7.88;;
30378;SDS011;17168;49.164;9.060;2023-08-20T13:42:26;7.30;;;5.45;;
30378;SDS011;17168;49.164;9.060;2023-08-20T13:44:58;8.48;;;7.78;;
30378;SDS011;17168;49.164;9.060;2023-08-20T13:47:33;7.60;;;6.97;;
30378;SDS011;17168;49.164;9.060;2023-08-20T13:50:06;6.38;;;5.22;;
30378;SDS011;17168;49.164;9.060;2023-08-20T13:52:38;7.10;;;6.53;;
30378;SDS011;17168;49.164;9.060;2023-08-20T13:55:11;5.65;;;4.75;;
30378;SDS011;17168;49.164;9.060;2023-08-20T13:57:44;7.63;;;7.03;;
30378;SDS011;17168;49.164;9.060;2023-08-20T14:00:16;6.50;;;5.15;;
30378;SDS011;17168;49.164;9.060;2023-08-20T14:02:51;6.07;;;5.00;;
30378;SDS011;17168;49.164;9.060;2023-08-20T14:05:23;7.00;;;5.10;;
30378;SDS011;17168;49.164;9.060;2023-08-20T14:07:56;7.95;;;7.22;;
30378;SDS011;17168;49.164;9.060;2023-08-20T14:10:28;7.95;;;7.30;;
30378;SDS011;17168;49.164;9.060;2023-08-20T14:13:00;8.48;;;7.88;;
30378;SDS011;17168;49.164;9.060;2023-08-20T14:15:32;7.30;;;6.60;;
30378;SDS011;17168;49.164;9.060;2023-08-20T14:18:07;7.18;;;6.05;;
30378;SDS011;17168;49.164;9.060;2023-08-20T14:20:40;7.72;;;6.90;;
30378;SDS011;17168;49.164;9.060;2023-08-20T14:23:13;7.22;;;6.53;;
30378;SDS011;17168;49.164;9.060;2023-08-20T14:25:45;6.97;;;6.38;;
30378;SDS011;17168;49.164;9.060;2023-08-20T14:28:17;8.77;;;7.00;;
30378;SDS011;17168;49.164;9.060;2023-08-20T14:30:49;5.65;;;5.13;;
30378;SDS011;17168;49.164;9.060;2023-08-20T14:33:30;6.80;;;6.13;;
30378;SDS011;17168;49.164;9.060;2023-08-20T14:36:03;6.82;;;6.28;;
30378;SDS011;17168;49.164;9.060;2023-08-20T14:38:35;7.90;;;7.30;;
30378;SDS011;17168;49.164;9.060;2023-08-20T14:41:08;7.43;;;6.72;;
30378;SDS011;17168;49.164;9.060;2023-08-20T14:43:40;7.57;;;6.45;;
30378;SDS011;17168;49.164;9.060;2023-08-20T14:46:13;8.13;;;6.15;;
30378;SDS011;17168;49.164;9.060;2023-08-20T14:48:48;6.97;;;6.38;;
30378;SDS011;17168;49.164;9.060;2023-08-20T14:51:20;6.57;;;5.97;;
30378;SDS011;17168;49.164;9.060;2023-08-20T14:53:53;5.25;;;4.53;;
30378;SDS011;17168;49.164;9.060;2023-08-20T14:56:25;9.90;;;4.68;;
30378;SDS011;17168;49.164;9.060;2023-08-20T14:58:58;7.43;;;6.72;;
30378;SDS011;17168;49.164;9.060;2023-08-20T15:01:32;6.95;;;6.43;;
30378;SDS011;17168;49.164;9.060;2023-08-20T15:04:08;7.40;;;6.70;;
30378;SDS011;17168;49.164;9.060;2023-08-20T15:06:40;7.50;;;6.85;;
30378;SDS011;17168;49.164;9.060;2023-08-20T15:09:12;6.65;;;6.07;;
30378;SDS011;17168;49.164;9.060;2023-08-20T15:11:46;6.80;;;6.30;;
30378;SDS011;17168;49.164;9.060;2023-08-20T15:14:19;7.20;;;6.55;;
30378;SDS011;17168;49.164;9.060;2023-08-20T15:16:51;6.47;;;5.50;;